createdAt,value
2018-10-09T00:00:24.983Z,15.37
2018-10-09T00:03:29.203Z,19.73
2018-10-09T00:06:33.488Z,29.47
2018-10-09T00:09:37.743Z,25.97
2018-10-09T00:12:42.037Z,21.90
2018-10-09T00:15:46.358Z,18.93
2018-10-09T00:18:50.824Z,25.60
2018-10-09T00:21:55.129Z,25.13
2018-10-09T00:24:59.367Z,22.27
2018-10-09T00:28:03.629Z,20.10
2018-10-09T00:31:07.888Z,23.93
2018-10-09T00:34:12.243Z,21.80
2018-10-09T00:37:16.567Z,27.10
2018-10-09T00:40:20.788Z,20.83
2018-10-09T00:43:25.067Z,25.67
2018-10-09T00:46:29.376Z,29.00
2018-10-09T00:49:33.611Z,21.67
2018-10-09T00:52:37.900Z,23.70
2018-10-09T00:55:42.160Z,22.80
2018-10-09T00:58:46.462Z,25.43
2018-10-09T01:01:50.712Z,23.90
2018-10-09T01:04:54.986Z,21.97
2018-10-09T01:07:59.234Z,22.13
2018-10-09T01:11:03.664Z,25.80
2018-10-09T01:14:07.957Z,26.63
2018-10-09T01:17:12.250Z,18.23
2018-10-09T01:20:20.625Z,28.00
2018-10-09T01:23:24.857Z,24.70
2018-10-09T01:26:29.111Z,25.80
2018-10-09T01:29:33.433Z,23.10
2018-10-09T01:32:37.684Z,28.47
2018-10-09T01:35:41.953Z,21.97
2018-10-09T01:38:46.174Z,27.07
2018-10-09T01:41:50.415Z,18.93
2018-10-09T01:44:54.673Z,22.40
2018-10-09T01:47:58.912Z,23.80
2018-10-09T01:51:03.176Z,24.20
2018-10-09T01:54:07.616Z,20.87
2018-10-09T01:57:11.906Z,25.83
2018-10-09T02:00:16.360Z,21.93
2018-10-09T02:03:20.635Z,24.63
2018-10-09T02:06:24.875Z,27.27
2018-10-09T02:09:29.134Z,26.53
2018-10-09T02:12:33.399Z,32.77
2018-10-09T02:15:37.677Z,24.10
2018-10-09T02:18:41.928Z,24.23
2018-10-09T02:21:46.161Z,23.20
2018-10-09T02:24:50.407Z,27.53
2018-10-09T02:27:54.632Z,22.20
2018-10-09T02:30:58.849Z,23.23
2018-10-09T02:34:03.145Z,22.63
2018-10-09T02:37:07.424Z,27.27
2018-10-09T02:40:11.723Z,29.20
2018-10-09T02:43:16.221Z,24.40
2018-10-09T02:46:20.481Z,25.67
2018-10-09T02:49:24.760Z,25.87
2018-10-09T02:52:29.068Z,26.20
2018-10-09T02:55:33.316Z,25.83
2018-10-09T02:58:37.538Z,22.83
2018-10-09T03:01:41.821Z,24.00
2018-10-09T03:04:46.061Z,22.63
2018-10-09T03:07:50.577Z,25.77
2018-10-09T03:10:54.876Z,29.10
2018-10-09T03:13:59.128Z,28.77
2018-10-09T03:17:03.417Z,31.17
2018-10-09T03:20:07.684Z,28.10
2018-10-09T03:23:11.960Z,28.63
2018-10-09T03:26:16.248Z,32.53
2018-10-09T03:29:20.534Z,31.87
2018-10-09T03:32:24.775Z,35.73
2018-10-09T03:35:29.048Z,39.13
2018-10-09T03:38:33.310Z,31.13
2018-10-09T03:41:37.528Z,31.10
2018-10-09T03:44:41.783Z,37.77
2018-10-09T03:47:46.024Z,38.40
2018-10-09T03:50:50.240Z,35.57
2018-10-09T03:53:54.480Z,40.57
2018-10-09T03:56:58.737Z,38.77
2018-10-09T04:00:03.045Z,38.90
2018-10-09T04:03:07.299Z,38.23
2018-10-09T04:06:11.583Z,36.17
2018-10-09T04:09:15.861Z,43.20
2018-10-09T04:12:20.111Z,37.03
2018-10-09T04:15:24.389Z,44.00
2018-10-09T04:18:28.629Z,44.37
2018-10-09T04:21:32.872Z,37.40
2018-10-09T04:24:37.071Z,38.03
2018-10-09T04:27:41.381Z,34.67
2018-10-09T04:30:45.599Z,35.63
2018-10-09T04:33:49.909Z,38.50
2018-10-09T04:36:54.188Z,42.70
2018-10-09T04:39:58.476Z,32.83
2018-10-09T04:43:02.698Z,40.07
2018-10-09T04:46:06.979Z,35.93
2018-10-09T04:49:11.221Z,36.70
2018-10-09T04:52:15.459Z,32.60
2018-10-09T04:55:19.704Z,34.33
2018-10-09T04:58:23.957Z,31.43
2018-10-09T05:01:28.205Z,30.80
2018-10-09T05:04:32.488Z,36.93
2018-10-09T05:07:36.736Z,38.47
2018-10-09T05:10:40.959Z,37.97
2018-10-09T05:13:45.223Z,31.27
2018-10-09T05:16:49.460Z,39.20
2018-10-09T05:19:53.733Z,38.80
2018-10-09T05:22:57.977Z,29.93
2018-10-09T05:26:02.242Z,27.23
2018-10-09T05:29:06.509Z,32.63
2018-10-09T05:32:10.800Z,29.13
2018-10-09T05:35:15.112Z,29.93
2018-10-09T05:38:19.445Z,33.97
2018-10-09T05:41:23.738Z,34.23
2018-10-09T05:44:28.054Z,31.10
2018-10-09T05:47:32.349Z,31.90
2018-10-09T05:50:36.628Z,29.00
2018-10-09T05:53:40.907Z,34.57
2018-10-09T05:56:45.229Z,33.37
2018-10-09T05:59:49.498Z,34.80
2018-10-09T06:02:53.756Z,33.60
2018-10-09T06:05:58.092Z,34.13
2018-10-09T06:09:02.404Z,32.37
2018-10-09T06:12:06.722Z,35.97
2018-10-09T06:15:11.029Z,36.87
2018-10-09T06:18:15.262Z,41.07
2018-10-09T06:21:19.544Z,46.13
2018-10-09T06:24:23.774Z,44.87
2018-10-09T06:27:28.323Z,51.77
2018-10-09T06:30:32.580Z,42.23
2018-10-09T06:33:36.835Z,35.87
2018-10-09T06:36:41.085Z,37.40
2018-10-09T06:39:45.417Z,36.37
2018-10-09T06:42:49.707Z,39.13
2018-10-09T06:45:53.937Z,38.70
2018-10-09T06:48:58.184Z,41.40
2018-10-09T06:52:02.514Z,38.77
2018-10-09T06:55:06.765Z,36.60
2018-10-09T06:58:10.999Z,36.07
2018-10-09T07:01:15.266Z,40.33
2018-10-09T07:04:19.533Z,39.43
2018-10-09T07:07:23.774Z,32.73
2018-10-09T07:10:28.068Z,39.10
2018-10-09T07:13:32.317Z,39.57
2018-10-09T07:16:36.746Z,39.77
2018-10-09T07:19:41.004Z,37.80
2018-10-09T07:22:45.289Z,39.07
2018-10-09T07:25:49.537Z,40.97
2018-10-09T07:28:53.872Z,40.70
2018-10-09T07:31:58.153Z,40.93
2018-10-09T07:35:02.428Z,40.90
2018-10-09T07:38:06.685Z,36.10
2018-10-09T07:41:11.035Z,40.17
2018-10-09T07:44:15.345Z,40.47
2018-10-09T07:47:19.641Z,37.83
2018-10-09T07:50:23.953Z,34.63
2018-10-09T07:53:28.210Z,37.53
2018-10-09T07:56:32.485Z,33.77
2018-10-09T07:59:36.792Z,37.57
2018-10-09T08:02:43.896Z,34.13
2018-10-09T08:05:48.596Z,30.60
2018-10-09T08:08:58.824Z,33.30
2018-10-09T08:12:08.665Z,31.40
2018-10-09T08:15:16.106Z,31.47
2018-10-09T08:21:40.480Z,34.03
2018-10-09T08:24:44.824Z,29.50
2018-10-09T08:27:49.179Z,32.90
2018-10-09T08:30:53.497Z,39.07
2018-10-09T08:33:57.813Z,32.03
2018-10-09T08:37:02.063Z,30.13
2018-10-09T08:40:07.140Z,31.17
2018-10-09T08:43:11.313Z,34.53
2018-10-09T08:46:15.663Z,33.37
2018-10-09T08:49:19.840Z,29.33
2018-10-09T08:52:24.117Z,27.40
2018-10-09T08:55:28.363Z,33.33
2018-10-09T08:58:32.576Z,33.10
2018-10-09T09:01:36.843Z,27.47
2018-10-09T09:04:41.116Z,29.93
2018-10-09T09:07:45.385Z,27.37
2018-10-09T09:10:49.726Z,31.70
2018-10-09T09:13:54.063Z,27.00
2018-10-09T09:16:58.319Z,27.20
2018-10-09T09:20:02.559Z,28.07
2018-10-09T09:23:06.933Z,30.37
2018-10-09T09:26:11.213Z,27.17
2018-10-09T09:29:15.444Z,29.17
2018-10-09T09:32:19.695Z,25.53
2018-10-09T09:35:23.929Z,25.80
2018-10-09T09:38:28.268Z,29.30
2018-10-09T09:41:32.550Z,23.97
2018-10-09T09:44:36.806Z,26.83
2018-10-09T09:47:41.082Z,25.47
2018-10-09T09:50:45.372Z,42.43
2018-10-09T09:53:49.629Z,26.83
2018-10-09T09:56:53.949Z,23.37
2018-10-09T09:59:58.234Z,27.23
2018-10-09T10:03:02.524Z,24.80
2018-10-09T10:06:06.965Z,29.80
2018-10-09T10:09:11.985Z,26.67
2018-10-09T10:12:16.324Z,25.30
2018-10-09T10:15:20.578Z,24.73
2018-10-09T10:18:24.885Z,24.63
2018-10-09T10:21:29.202Z,23.40
2018-10-09T10:24:33.379Z,27.67
2018-10-09T10:27:37.605Z,26.17
2018-10-09T10:30:41.918Z,27.33
2018-10-09T10:33:46.233Z,24.47
2018-10-09T10:36:50.673Z,27.10
2018-10-09T10:39:54.751Z,28.67
2018-10-09T10:42:59.000Z,20.90
2018-10-09T10:46:03.225Z,26.02
2018-10-09T10:49:09.660Z,20.50
2018-10-09T10:52:13.885Z,22.27
2018-10-09T10:55:18.150Z,26.27
2018-10-09T10:58:22.429Z,19.27
2018-10-09T11:01:26.745Z,18.00
2018-10-09T11:04:30.940Z,25.03
2018-10-09T11:07:35.142Z,20.23
2018-10-09T11:10:39.394Z,17.57
2018-10-09T11:13:43.608Z,18.73
2018-10-09T11:16:47.862Z,18.47
2018-10-09T11:19:52.119Z,20.87
2018-10-09T11:22:56.388Z,18.60
2018-10-09T11:26:00.673Z,20.43
2018-10-09T11:29:04.950Z,21.47
2018-10-09T11:32:09.192Z,19.57
2018-10-09T11:35:13.430Z,23.50
2018-10-09T11:38:17.711Z,20.10
2018-10-09T11:41:21.990Z,32.53
2018-10-09T11:44:26.234Z,27.80
2018-10-09T11:47:30.523Z,21.63
2018-10-09T11:50:34.768Z,21.43
2018-10-09T11:53:39.057Z,19.90
2018-10-09T11:56:43.337Z,29.23
2018-10-09T11:59:47.586Z,24.37
2018-10-09T12:02:51.883Z,24.00
2018-10-09T12:05:56.140Z,21.13
2018-10-09T12:09:00.425Z,24.90
2018-10-09T12:12:04.753Z,32.20
2018-10-09T12:15:09.001Z,33.90
2018-10-09T12:18:13.273Z,25.53
2018-10-09T12:21:17.567Z,23.07
2018-10-09T12:24:21.872Z,22.20
2018-10-09T12:27:26.161Z,21.93
2018-10-09T12:30:30.453Z,29.97
2018-10-09T12:33:34.704Z,21.37
2018-10-09T12:36:39.017Z,28.07
2018-10-09T12:39:43.313Z,31.10
2018-10-09T12:42:47.570Z,24.23
2018-10-09T12:45:51.858Z,26.00
2018-10-09T12:48:56.119Z,26.03
2018-10-09T12:52:00.376Z,27.93
2018-10-09T12:55:04.678Z,22.97
2018-10-09T12:58:08.937Z,26.20
2018-10-09T13:01:13.215Z,23.73
2018-10-09T13:04:17.486Z,26.47
2018-10-09T13:07:21.763Z,23.67
2018-10-09T13:10:26.018Z,23.07
2018-10-09T13:13:30.290Z,23.00
2018-10-09T13:16:34.565Z,24.67
2018-10-09T13:19:38.820Z,23.80
2018-10-09T13:22:43.146Z,24.63
2018-10-09T13:25:47.428Z,22.20
2018-10-09T13:28:51.699Z,25.17
2018-10-09T13:31:55.962Z,29.43
2018-10-09T13:35:00.265Z,21.67
2018-10-09T13:38:04.562Z,22.70
2018-10-09T13:41:08.904Z,26.80
2018-10-09T13:44:13.274Z,25.70
2018-10-09T13:47:17.581Z,23.47
2018-10-09T13:50:21.864Z,36.90
2018-10-09T13:53:26.204Z,33.37
2018-10-09T13:56:30.560Z,23.17
2018-10-09T13:59:34.866Z,23.37
2018-10-09T14:02:39.173Z,32.17
2018-10-09T14:05:43.480Z,27.40
2018-10-09T14:08:47.781Z,20.80
2018-10-09T14:11:52.045Z,26.77
2018-10-09T14:14:56.383Z,25.97
2018-10-09T14:18:00.629Z,28.97
2018-10-09T14:21:04.900Z,27.70
2018-10-09T14:24:09.191Z,30.87
2018-10-09T14:27:13.445Z,23.40
2018-10-09T14:30:17.707Z,45.87
2018-10-09T14:33:21.941Z,34.10
2018-10-09T14:36:26.221Z,25.67
2018-10-09T14:39:30.469Z,30.17
2018-10-09T14:42:34.698Z,29.13
2018-10-09T14:45:38.912Z,24.80
2018-10-09T14:48:43.194Z,23.90
2018-10-09T14:51:47.445Z,28.43
2018-10-09T14:54:51.692Z,23.37
2018-10-09T14:57:55.920Z,28.33
2018-10-09T15:01:00.185Z,26.07
2018-10-09T15:04:04.446Z,23.27
2018-10-09T15:07:08.676Z,29.70
2018-10-09T15:10:12.922Z,27.97
2018-10-09T15:13:17.170Z,29.93
2018-10-09T15:16:21.385Z,29.83
2018-10-09T15:19:25.643Z,35.97
2018-10-09T15:22:29.869Z,29.00
2018-10-09T15:25:34.213Z,25.73
2018-10-09T15:28:38.465Z,26.73
2018-10-09T15:31:42.701Z,25.67
2018-10-09T15:34:47.020Z,27.77
2018-10-09T15:37:51.389Z,27.40
2018-10-09T15:40:55.628Z,27.47
2018-10-09T15:43:59.893Z,25.20
2018-10-09T15:47:04.195Z,28.23
2018-10-09T15:50:08.471Z,24.40
2018-10-09T15:53:12.744Z,28.97
2018-10-09T15:56:17.049Z,24.90
2018-10-09T15:59:21.314Z,28.23
2018-10-09T16:02:25.564Z,26.77
2018-10-09T16:05:29.816Z,25.33
2018-10-09T16:08:34.147Z,26.13
2018-10-09T16:11:38.397Z,24.53
2018-10-09T16:14:42.694Z,24.60
2018-10-09T16:17:46.942Z,26.50
2018-10-09T16:20:51.378Z,23.37
2018-10-09T16:23:55.558Z,27.60
2018-10-09T16:26:59.828Z,25.17
2018-10-09T16:30:04.105Z,24.93
2018-10-09T16:33:08.709Z,32.30
2018-10-09T16:36:12.986Z,28.03
2018-10-09T16:39:17.329Z,28.73
2018-10-09T16:42:21.630Z,28.63
2018-10-09T16:45:25.977Z,31.67
2018-10-09T16:48:30.267Z,28.77
2018-10-09T16:51:34.575Z,31.57
2018-10-09T16:54:38.906Z,34.23
2018-10-09T16:57:43.200Z,37.23
2018-10-09T17:00:47.450Z,34.90
2018-10-09T17:03:52.039Z,32.13
2018-10-09T17:06:56.556Z,34.37
2018-10-09T17:10:00.802Z,32.80
2018-10-09T17:13:05.108Z,32.70
2018-10-09T17:16:09.406Z,36.57
2018-10-09T17:19:13.693Z,34.33
2018-10-09T17:22:18.018Z,35.47
2018-10-09T17:25:22.449Z,39.23
2018-10-09T17:28:26.786Z,31.33
2018-10-09T17:31:31.040Z,37.27
2018-10-09T17:34:35.313Z,35.73
2018-10-09T17:37:39.584Z,40.40
2018-10-09T17:40:43.905Z,35.93
2018-10-09T17:43:48.184Z,31.13
2018-10-09T17:46:52.547Z,39.70
2018-10-09T17:49:56.785Z,39.13
2018-10-09T17:53:01.037Z,38.90
2018-10-09T17:56:05.400Z,42.57
2018-10-09T17:59:09.708Z,38.40
2018-10-09T18:02:13.972Z,38.43
2018-10-09T18:05:18.253Z,41.67
2018-10-09T18:08:22.565Z,41.77
2018-10-09T18:11:26.825Z,41.03
2018-10-09T18:14:31.122Z,39.43
2018-10-09T18:17:35.341Z,37.83
2018-10-09T18:20:39.592Z,40.63
2018-10-09T18:23:43.881Z,42.50
2018-10-09T18:26:48.153Z,36.17
2018-10-09T18:29:52.492Z,41.43
2018-10-09T18:32:56.977Z,40.70
2018-10-09T18:36:01.142Z,41.73
2018-10-09T18:39:12.299Z,35.30
2018-10-09T18:42:16.645Z,28.43
2018-10-09T18:45:20.937Z,38.30
2018-10-09T18:48:25.213Z,40.10
2018-10-09T18:51:29.535Z,38.90
2018-10-09T18:54:33.769Z,37.17
2018-10-09T18:57:38.068Z,43.47
2018-10-09T19:00:42.521Z,38.97
2018-10-09T19:03:47.865Z,45.80
2018-10-09T19:06:52.260Z,47.10
2018-10-09T19:09:57.735Z,44.37
2018-10-09T19:13:02.213Z,38.10
2018-10-09T19:16:07.075Z,33.80
2018-10-09T19:19:11.803Z,36.20
2018-10-09T19:22:16.583Z,36.73
2018-10-09T19:25:20.991Z,34.50
2018-10-09T19:28:25.531Z,31.70
2018-10-09T19:31:30.944Z,35.30
2018-10-09T19:34:35.318Z,38.87
2018-10-09T19:37:39.706Z,31.33
2018-10-09T19:40:43.978Z,27.07
2018-10-09T19:43:48.268Z,33.70
2018-10-09T19:46:52.550Z,34.17
2018-10-09T19:49:56.802Z,30.70
2018-10-09T19:53:01.098Z,36.83
2018-10-09T19:56:05.370Z,34.93
2018-10-09T19:59:09.739Z,36.23
2018-10-09T20:02:14.007Z,33.43
2018-10-09T20:05:18.345Z,30.70
2018-10-09T20:08:22.636Z,36.00
2018-10-09T20:11:26.900Z,31.67
2018-10-09T20:14:31.284Z,35.30
2018-10-09T20:17:35.484Z,31.80
2018-10-09T20:20:39.824Z,33.60
2018-10-09T20:23:44.053Z,33.47
2018-10-09T20:26:48.618Z,37.43
2018-10-09T20:29:52.896Z,38.50
2018-10-09T20:32:57.167Z,34.83
2018-10-09T20:36:01.449Z,32.23
2018-10-09T20:39:07.530Z,31.93
2018-10-09T20:42:11.811Z,32.03
2018-10-09T20:45:16.109Z,33.40
2018-10-09T20:48:20.373Z,36.33
2018-10-09T20:51:24.645Z,38.43
2018-10-09T20:54:28.942Z,35.70
2018-10-09T20:57:33.226Z,36.07
2018-10-09T21:00:37.534Z,44.27
2018-10-09T21:03:41.796Z,35.93
2018-10-09T21:06:46.081Z,36.33
2018-10-09T21:09:51.191Z,36.30
2018-10-09T21:12:55.461Z,32.77
2018-10-09T21:15:59.750Z,32.87
2018-10-09T21:19:04.044Z,32.77
2018-10-09T21:22:08.383Z,30.07
2018-10-09T21:25:12.681Z,34.40
2018-10-09T21:28:16.957Z,37.70
2018-10-09T21:31:21.814Z,36.77
2018-10-09T21:34:26.104Z,26.27
2018-10-09T21:37:30.389Z,31.10
2018-10-09T21:40:34.665Z,29.53
2018-10-09T21:43:39.016Z,34.93
2018-10-09T21:46:43.290Z,30.80
2018-10-09T21:49:47.617Z,32.57
2018-10-09T21:52:52.051Z,33.53
2018-10-09T21:55:56.319Z,31.57
2018-10-09T21:59:00.642Z,30.97
2018-10-09T22:02:04.913Z,35.90
2018-10-09T22:05:10.138Z,35.10
2018-10-09T22:08:14.419Z,33.03
2018-10-09T22:11:18.660Z,37.97
2018-10-09T22:14:22.968Z,37.70
2018-10-09T22:17:27.684Z,32.90
2018-10-09T22:20:31.922Z,30.90
2018-10-09T22:23:36.302Z,29.60
2018-10-09T22:26:40.570Z,27.73
2018-10-09T22:29:44.853Z,31.23
2018-10-09T22:32:49.114Z,28.03
2018-10-09T22:35:53.404Z,30.00
2018-10-09T22:38:57.645Z,29.43
2018-10-09T22:42:01.930Z,28.33
2018-10-09T22:45:06.202Z,33.13
2018-10-09T22:48:10.496Z,31.50
2018-10-09T22:51:14.747Z,30.70
2018-10-09T22:54:19.048Z,36.50
2018-10-09T22:57:23.321Z,33.37
2018-10-09T23:00:27.665Z,34.30
2018-10-09T23:03:31.941Z,34.03
2018-10-09T23:06:36.307Z,32.33
2018-10-09T23:09:40.557Z,33.40
2018-10-09T23:12:44.833Z,32.13
2018-10-09T23:15:49.089Z,33.77
2018-10-09T23:18:53.413Z,31.77
2018-10-09T23:21:57.656Z,31.73
2018-10-09T23:25:01.924Z,29.53
2018-10-09T23:28:06.707Z,32.93
2018-10-09T23:31:11.005Z,34.97
2018-10-09T23:34:15.285Z,37.07
2018-10-09T23:37:19.622Z,34.37
2018-10-09T23:40:23.900Z,32.97
2018-10-09T23:43:28.199Z,33.43
2018-10-09T23:46:32.470Z,31.13
2018-10-09T23:49:36.799Z,36.40
2018-10-09T23:52:41.091Z,32.40
2018-10-09T23:55:45.424Z,31.23
2018-10-09T23:58:49.675Z,29.00
